createdAt,value
2023-03-06T00:01:59.362Z,39.40
2023-03-06T00:05:59.768Z,38.49
2023-03-06T00:09:59.910Z,38.47
2023-03-06T00:13:59.906Z,38.76
2023-03-06T00:18:00.290Z,38.82
2023-03-06T00:22:00.397Z,38.59
2023-03-06T00:26:00.495Z,40.73
2023-03-06T00:30:00.629Z,37.89
2023-03-06T00:34:00.824Z,38.74
2023-03-06T00:38:00.935Z,39.03
2023-03-06T00:42:01.323Z,37.10
2023-03-06T00:46:01.547Z,38.78
2023-03-06T00:50:01.566Z,37.53
2023-03-06T00:54:01.748Z,38.38
2023-03-06T00:58:01.854Z,37.33
2023-03-06T01:02:02.404Z,37.18
2023-03-06T01:06:03.181Z,38.51
2023-03-06T01:10:02.579Z,38.73
2023-03-06T01:14:02.725Z,39.41
2023-03-06T01:18:02.591Z,38.02
2023-03-06T01:22:02.436Z,39.49
2023-03-06T01:26:02.529Z,37.26
2023-03-06T01:30:02.569Z,36.20
2023-03-06T01:34:02.506Z,36.69
2023-03-06T01:38:02.306Z,36.44
2023-03-06T01:42:02.230Z,39.03
2023-03-06T01:46:02.243Z,36.30
2023-03-06T01:50:02.569Z,38.05
2023-03-06T01:54:02.522Z,33.77
2023-03-06T01:58:02.398Z,37.85
2023-03-06T02:02:02.569Z,38.70
2023-03-06T02:06:02.314Z,39.52
2023-03-06T02:10:02.251Z,36.33
2023-03-06T02:14:02.192Z,39.84
2023-03-06T02:18:02.205Z,36.82
2023-03-06T02:22:02.131Z,36.93
2023-03-06T02:26:02.105Z,35.55
2023-03-06T02:30:02.021Z,39.84
2023-03-06T02:34:02.058Z,38.30
2023-03-06T02:38:01.972Z,37.53
2023-03-06T02:42:01.988Z,35.89
2023-03-06T02:46:01.923Z,38.67
2023-03-06T02:50:01.864Z,39.20
2023-03-06T02:54:01.811Z,36.97
2023-03-06T02:58:01.859Z,38.41
2023-03-06T03:02:01.742Z,36.72
2023-03-06T03:06:01.672Z,41.00
2023-03-06T03:10:01.837Z,38.41
2023-03-06T03:14:01.823Z,37.98
2023-03-06T03:18:01.931Z,40.59
2023-03-06T03:22:01.992Z,39.96
2023-03-06T03:26:02.089Z,38.65
2023-03-06T03:30:02.226Z,38.19
2023-03-06T03:34:02.426Z,38.90
2023-03-06T03:38:02.298Z,40.42
2023-03-06T03:42:02.239Z,38.67
2023-03-06T03:46:02.117Z,38.70
2023-03-06T03:50:02.227Z,38.78
2023-03-06T03:54:02.208Z,38.85
2023-03-06T03:58:02.002Z,41.08
2023-03-06T04:02:02.070Z,38.11
2023-03-06T04:06:02.127Z,41.08
2023-03-06T04:10:01.872Z,38.51
2023-03-06T04:14:02.128Z,40.18
2023-03-06T04:18:02.010Z,38.45
2023-03-06T04:22:01.776Z,38.12
2023-03-06T04:26:01.904Z,37.56
2023-03-06T04:30:01.892Z,39.99
2023-03-06T04:34:01.675Z,38.35
2023-03-06T04:38:01.789Z,38.31
2023-03-06T04:42:01.877Z,38.99
2023-03-06T04:46:01.611Z,38.02
2023-03-06T04:50:01.678Z,38.49
2023-03-06T04:54:02.041Z,38.31
2023-03-06T04:58:01.795Z,42.07
2023-03-06T05:02:02.137Z,38.71
2023-03-06T05:06:02.137Z,25.09
2023-03-06T05:10:02.120Z,25.00
2023-03-06T05:14:02.251Z,28.03
2023-03-06T05:18:02.244Z,27.37
2023-03-06T05:22:02.010Z,26.92
2023-03-06T05:26:02.162Z,26.89
2023-03-06T05:30:02.086Z,28.77
2023-03-06T05:34:01.919Z,32.83
2023-03-06T05:38:01.986Z,37.58
2023-03-06T05:42:02.009Z,41.94
2023-03-06T05:46:01.862Z,42.68
2023-03-06T05:50:01.943Z,45.24
2023-03-06T05:54:01.866Z,43.56
2023-03-06T05:58:01.898Z,46.72
2023-03-06T06:02:02.166Z,48.15
2023-03-06T06:06:02.483Z,47.45
2023-03-06T06:10:03.830Z,51.41
2023-03-06T06:14:02.636Z,47.28
2023-03-06T06:18:02.639Z,48.99
2023-03-06T06:22:02.386Z,48.14
2023-03-06T06:26:02.590Z,46.68
2023-03-06T06:30:02.478Z,48.72
2023-03-06T06:34:02.448Z,54.11
2023-03-06T06:38:02.516Z,65.63
2023-03-06T06:42:21.658Z,50.34
2023-03-06T06:46:31.480Z,46.11
2023-03-06T06:50:03.312Z,34.25
2023-03-06T06:54:02.135Z,25.91
2023-03-06T06:58:02.260Z,28.63
2023-03-06T07:02:02.017Z,27.82
2023-03-06T07:06:01.993Z,29.77
2023-03-06T07:10:01.936Z,28.23
2023-03-06T07:14:02.116Z,30.15
2023-03-06T07:18:02.261Z,32.20
2023-03-06T07:22:02.188Z,38.23
2023-03-06T07:26:02.488Z,36.92
2023-03-06T07:30:02.582Z,38.40
2023-03-06T07:34:04.830Z,38.01
2023-03-06T07:38:02.909Z,25.24
2023-03-06T07:42:03.015Z,65.09
2023-03-06T07:46:03.041Z,52.37
2023-03-06T07:50:03.318Z,46.90
2023-03-06T07:54:03.284Z,48.69
2023-03-06T07:58:03.616Z,54.09
2023-03-06T08:02:03.672Z,56.91
2023-03-06T08:06:03.612Z,60.75
2023-03-06T08:10:04.013Z,60.60
2023-03-06T08:14:04.785Z,66.13
2023-03-06T08:18:03.942Z,67.01
2023-03-06T08:22:03.935Z,67.50
2023-03-06T08:26:03.637Z,67.40
2023-03-06T08:30:03.826Z,69.19
2023-03-06T08:34:05.097Z,76.97
2023-03-06T08:38:03.582Z,104.77
2023-03-06T08:42:04.610Z,141.17
2023-03-06T08:46:03.738Z,116.99
2023-03-06T08:50:03.546Z,230.19
2023-03-06T08:54:03.691Z,154.68
2023-03-06T08:58:03.608Z,137.52
2023-03-06T09:02:03.561Z,132.23
2023-03-06T09:06:03.880Z,127.01
2023-03-06T09:10:04.043Z,121.36
2023-03-06T09:14:04.052Z,119.82
2023-03-06T09:18:04.472Z,116.59
2023-03-06T09:22:04.516Z,109.89
2023-03-06T09:26:04.568Z,105.43
2023-03-06T09:30:04.897Z,85.99
2023-03-06T09:34:04.919Z,83.52
2023-03-06T09:38:04.902Z,67.44
2023-03-06T09:42:05.170Z,40.12
2023-03-06T09:46:05.704Z,57.87
2023-03-06T09:50:05.233Z,38.17
2023-03-06T09:54:05.569Z,39.39
2023-03-06T09:58:07.353Z,49.97
2023-03-06T10:02:05.627Z,64.19
2023-03-06T10:06:05.811Z,71.32
2023-03-06T10:10:06.007Z,79.22
2023-03-06T10:14:06.461Z,83.28
2023-03-06T10:18:06.307Z,92.08
2023-03-06T10:22:06.171Z,94.94
2023-03-06T10:26:06.263Z,93.33
2023-03-06T10:30:06.210Z,90.68
2023-03-06T10:34:06.732Z,94.13
2023-03-06T10:38:06.332Z,99.77
2023-03-06T10:42:06.514Z,68.58
2023-03-06T10:46:06.672Z,59.87
2023-03-06T10:50:08.368Z,53.55
2023-03-06T10:54:06.658Z,57.33
2023-03-06T10:58:06.700Z,56.57
2023-03-06T11:02:06.516Z,56.95
2023-03-06T11:06:06.675Z,76.79
2023-03-06T11:10:14.846Z,96.09
2023-03-06T11:14:06.733Z,105.79
2023-03-06T11:18:06.935Z,119.57
2023-03-06T11:22:07.046Z,143.35
2023-03-06T11:26:07.037Z,97.25
2023-03-06T11:30:07.222Z,84.77
2023-03-06T11:34:07.403Z,68.95
2023-03-06T11:38:07.594Z,117.80
2023-03-06T11:42:07.846Z,99.77
2023-03-06T11:46:07.799Z,97.52
2023-03-06T11:50:07.938Z,121.04
2023-03-06T11:54:07.873Z,110.74
2023-03-06T11:58:07.858Z,118.07
2023-03-06T12:02:07.903Z,104.29
2023-03-06T12:06:07.799Z,104.78
2023-03-06T12:10:07.780Z,95.58
2023-03-06T12:14:07.741Z,111.74
2023-03-06T12:18:07.799Z,122.24
2023-03-06T12:22:07.643Z,116.54
2023-03-06T12:26:07.637Z,113.35
2023-03-06T12:30:07.593Z,84.74
2023-03-06T12:34:07.645Z,70.66
2023-03-06T12:38:07.852Z,68.18
2023-03-06T12:42:11.473Z,66.01
2023-03-06T12:46:09.064Z,40.09
2023-03-06T12:50:08.056Z,40.35
2023-03-06T12:54:08.110Z,47.12
2023-03-06T12:58:08.427Z,121.54
2023-03-06T13:02:08.481Z,84.37
2023-03-06T13:06:08.822Z,73.66
2023-03-06T13:10:08.577Z,84.00
2023-03-06T13:14:08.595Z,103.91
2023-03-06T13:18:08.680Z,85.34
2023-03-06T13:22:08.901Z,89.01
2023-03-06T13:26:09.131Z,20.86
2023-03-06T13:30:09.216Z,46.87
2023-03-06T13:34:09.389Z,41.18
2023-03-06T13:38:09.304Z,48.22
2023-03-06T13:42:09.331Z,49.42
2023-03-06T13:46:09.249Z,59.20
2023-03-06T13:50:09.272Z,55.37
2023-03-06T13:54:09.392Z,64.03
2023-03-06T13:58:09.356Z,72.82
2023-03-06T14:02:09.138Z,78.94
2023-03-06T14:06:09.056Z,84.52
2023-03-06T14:10:09.383Z,87.41
2023-03-06T14:14:09.014Z,111.66
2023-03-06T14:18:08.924Z,102.27
2023-03-06T14:22:09.181Z,99.49
2023-03-06T14:26:09.208Z,120.85
2023-03-06T14:30:09.314Z,149.10
2023-03-06T14:34:09.463Z,162.69
2023-03-06T14:38:09.622Z,182.36
2023-03-06T14:42:09.841Z,272.09
2023-03-06T14:46:10.149Z,238.26
2023-03-06T14:50:10.000Z,232.32
2023-03-06T14:54:10.154Z,208.50
2023-03-06T14:58:10.045Z,195.26
2023-03-06T15:02:09.959Z,186.42
2023-03-06T15:06:10.010Z,186.31
2023-03-06T15:10:09.869Z,180.91
2023-03-06T15:14:09.867Z,163.42
2023-03-06T15:18:09.783Z,161.22
2023-03-06T15:22:09.804Z,158.12
2023-03-06T15:26:09.741Z,145.36
2023-03-06T15:30:09.667Z,153.77
2023-03-06T15:34:09.663Z,159.54
2023-03-06T15:38:09.718Z,163.36
2023-03-06T15:42:09.647Z,162.29
2023-03-06T15:46:09.790Z,167.04
2023-03-06T15:50:09.791Z,170.76
2023-03-06T15:54:12.666Z,168.32
2023-03-06T15:58:09.638Z,172.86
2023-03-06T16:02:09.590Z,174.21
2023-03-06T16:06:09.619Z,167.72
2023-03-06T16:10:09.656Z,167.58
2023-03-06T16:14:09.551Z,169.78
2023-03-06T16:18:09.573Z,168.78
2023-03-06T16:22:09.410Z,170.70
2023-03-06T16:26:09.331Z,169.69
2023-03-06T16:30:09.411Z,166.51
2023-03-06T16:34:09.282Z,165.38
2023-03-06T16:38:09.265Z,163.53
2023-03-06T16:42:09.389Z,162.56
2023-03-06T16:46:09.156Z,162.33
2023-03-06T16:50:09.577Z,161.82
2023-03-06T16:54:09.391Z,159.96
2023-03-06T16:58:09.060Z,159.28
2023-03-06T17:02:09.097Z,159.39
2023-03-06T17:06:09.151Z,158.69
2023-03-06T17:10:09.399Z,157.62
2023-03-06T17:14:09.784Z,155.43
2023-03-06T17:18:09.778Z,155.20
2023-03-06T17:22:09.765Z,153.32
2023-03-06T17:26:09.510Z,153.14
2023-03-06T17:30:09.415Z,149.90
2023-03-06T17:34:09.389Z,150.52
2023-03-06T17:38:09.358Z,149.15
2023-03-06T17:42:09.288Z,149.56
2023-03-06T17:46:09.456Z,146.87
2023-03-06T17:50:09.249Z,147.80
2023-03-06T17:54:09.806Z,145.77
2023-03-06T17:58:12.099Z,146.40
2023-03-06T18:02:09.553Z,145.68
2023-03-06T18:06:09.616Z,147.63
2023-03-06T18:10:09.703Z,147.68
2023-03-06T18:14:09.432Z,148.08
2023-03-06T18:18:09.451Z,146.46
2023-03-06T18:22:09.572Z,145.48
2023-03-06T18:26:09.903Z,145.78
2023-03-06T18:30:09.355Z,145.36
2023-03-06T18:34:09.349Z,144.61
2023-03-06T18:38:09.260Z,145.16
2023-03-06T18:42:09.214Z,167.44
2023-03-06T18:46:09.268Z,164.79
2023-03-06T18:50:09.246Z,142.51
2023-03-06T18:54:09.092Z,126.35
2023-03-06T18:58:09.019Z,122.59
2023-03-06T19:02:08.934Z,115.18
2023-03-06T19:06:09.092Z,98.47
2023-03-06T19:10:09.226Z,92.07
2023-03-06T19:14:08.922Z,86.51
2023-03-06T19:18:09.071Z,86.54
2023-03-06T19:22:08.850Z,122.52
2023-03-06T19:26:09.282Z,124.87
2023-03-06T19:30:09.021Z,126.16
2023-03-06T19:34:09.081Z,129.59
2023-03-06T19:38:09.388Z,128.91
2023-03-06T19:42:09.337Z,128.04
2023-03-06T19:46:09.390Z,128.00
2023-03-06T19:50:09.493Z,125.09
2023-03-06T19:54:09.727Z,126.09
2023-03-06T19:58:10.055Z,126.31
2023-03-06T20:02:09.685Z,125.43
2023-03-06T20:06:09.818Z,125.98
2023-03-06T20:10:09.933Z,125.29
2023-03-06T20:14:10.049Z,126.37
2023-03-06T20:18:10.139Z,125.18
2023-03-06T20:22:10.297Z,126.30
2023-03-06T20:26:10.416Z,125.00
2023-03-06T20:30:10.876Z,123.94
2023-03-06T20:34:10.960Z,124.99
2023-03-06T20:38:11.103Z,125.58
2023-03-06T20:42:11.134Z,123.97
2023-03-06T20:46:11.208Z,124.02
2023-03-06T20:50:11.485Z,126.25
2023-03-06T20:54:11.575Z,124.34
2023-03-06T20:58:11.662Z,123.96
2023-03-06T21:02:12.101Z,121.73
2023-03-06T21:06:11.996Z,124.39
2023-03-06T21:10:12.133Z,123.81
2023-03-06T21:14:12.306Z,124.31
2023-03-06T21:18:12.589Z,124.23
2023-03-06T21:22:12.812Z,124.22
2023-03-06T21:26:13.153Z,124.23
2023-03-06T21:30:13.063Z,121.57
2023-03-06T21:34:13.526Z,125.74
2023-03-06T21:38:13.673Z,123.01
2023-03-06T21:42:13.790Z,123.37
2023-03-06T21:46:13.913Z,126.60
2023-03-06T21:50:13.807Z,123.04
2023-03-06T21:54:14.116Z,120.60
2023-03-06T21:58:13.980Z,123.01
2023-03-06T22:02:13.661Z,124.84
2023-03-06T22:06:13.859Z,123.07
2023-03-06T22:10:13.660Z,122.57
2023-03-06T22:14:13.819Z,120.42
2023-03-06T22:18:13.622Z,122.33
2023-03-06T22:22:13.592Z,122.87
2023-03-06T22:26:13.662Z,121.04
2023-03-06T22:30:13.494Z,122.48
2023-03-06T22:34:13.405Z,124.04
2023-03-06T22:38:13.433Z,124.79
2023-03-06T22:42:13.340Z,122.95
2023-03-06T22:46:13.317Z,123.00
2023-03-06T22:50:13.285Z,122.15
2023-03-06T22:54:13.236Z,121.01
2023-03-06T22:58:13.170Z,123.90
2023-03-06T23:02:13.158Z,122.45
2023-03-06T23:06:13.301Z,121.55
2023-03-06T23:10:13.449Z,122.18
2023-03-06T23:14:13.482Z,122.62
2023-03-06T23:18:13.453Z,120.79
2023-03-06T23:22:13.635Z,120.12
2023-03-06T23:26:13.350Z,123.40
2023-03-06T23:30:13.273Z,120.90
2023-03-06T23:34:13.768Z,120.64
2023-03-06T23:38:13.436Z,119.65
2023-03-06T23:42:13.209Z,124.23
2023-03-06T23:46:13.179Z,120.01
2023-03-06T23:50:13.106Z,121.48
2023-03-06T23:54:13.156Z,120.07
2023-03-06T23:58:13.139Z,121.43
